sensor_id;sensor_type;location;lat;lon;timestamp;temperature;humidity
41985;DHT22;28319;48.116;10.818;2023-04-24T00:04:22;10.90;99.90
41985;DHT22;28319;48.116;10.818;2023-04-24T00:09:27;10.80;99.90
41985;DHT22;28319;48.116;10.818;2023-04-24T00:14:29;10.80;99.90
41985;DHT22;28319;48.116;10.818;2023-04-24T00:19:32;10.60;99.90
41985;DHT22;28319;48.116;10.818;2023-04-24T00:24:35;10.70;99.90
41985;DHT22;28319;48.116;10.818;2023-04-24T00:29:37;10.70;99.90
41985;DHT22;28319;48.116;10.818;2023-04-24T00:34:39;10.70;99.90
41985;DHT22;28319;48.116;10.818;2023-04-24T00:39:42;10.60;99.90
41985;DHT22;28319;48.116;10.818;2023-04-24T00:44:44;10.50;99.90
41985;DHT22;28319;48.116;10.818;2023-04-24T00:49:47;10.40;99.90
41985;DHT22;28319;48.116;10.818;2023-04-24T00:54:50;10.40;99.90
41985;DHT22;28319;48.116;10.818;2023-04-24T00:59:52;10.40;99.90
41985;DHT22;28319;48.116;10.818;2023-04-24T01:04:54;10.30;99.90
41985;DHT22;28319;48.116;10.818;2023-04-24T01:09:58;10.20;99.90
41985;DHT22;28319;48.116;10.818;2023-04-24T01:15:00;10.40;99.90
41985;DHT22;28319;48.116;10.818;2023-04-24T01:20:05;10.40;99.90
41985;DHT22;28319;48.116;10.818;2023-04-24T01:25:09;10.40;99.90
41985;DHT22;28319;48.116;10.818;2023-04-24T01:30:12;10.40;99.90
41985;DHT22;28319;48.116;10.818;2023-04-24T01:35:14;10.30;99.90
41985;DHT22;28319;48.116;10.818;2023-04-24T01:40:18;10.40;99.90
41985;DHT22;28319;48.116;10.818;2023-04-24T01:45:20;10.30;99.90
41985;DHT22;28319;48.116;10.818;2023-04-24T01:50:22;10.30;99.90
41985;DHT22;28319;48.116;10.818;2023-04-24T01:55:25;10.20;99.90
41985;DHT22;28319;48.116;10.818;2023-04-24T02:00:27;10.30;99.90
41985;DHT22;28319;48.116;10.818;2023-04-24T02:05:29;10.20;99.90
41985;DHT22;28319;48.116;10.818;2023-04-24T02:10:33;10.30;99.90
41985;DHT22;28319;48.116;10.818;2023-04-24T02:15:35;10.30;99.90
41985;DHT22;28319;48.116;10.818;2023-04-24T02:20:37;10.20;99.90
41985;DHT22;28319;48.116;10.818;2023-04-24T02:25:40;10.20;99.90
41985;DHT22;28319;48.116;10.818;2023-04-24T02:30:42;10.20;99.90
41985;DHT22;28319;48.116;10.818;2023-04-24T02:35:44;10.20;99.90
41985;DHT22;28319;48.116;10.818;2023-04-24T02:40:48;10.30;99.90
41985;DHT22;28319;48.116;10.818;2023-04-24T02:45:50;10.20;99.90
41985;DHT22;28319;48.116;10.818;2023-04-24T02:50:52;10.10;99.90
41985;DHT22;28319;48.116;10.818;2023-04-24T02:55:55;10.20;99.90
41985;DHT22;28319;48.116;10.818;2023-04-24T03:00:57;10.10;99.90
41985;DHT22;28319;48.116;10.818;2023-04-24T03:05:59;10.20;99.90
41985;DHT22;28319;48.116;10.818;2023-04-24T03:11:02;10.10;99.90
41985;DHT22;28319;48.116;10.818;2023-04-24T03:16:05;10.10;99.90
41985;DHT22;28319;48.116;10.818;2023-04-24T03:21:07;10.10;99.90
41985;DHT22;28319;48.116;10.818;2023-04-24T03:26:11;10.00;99.90
41985;DHT22;28319;48.116;10.818;2023-04-24T03:31:13;10.00;99.90
41985;DHT22;28319;48.116;10.818;2023-04-24T03:36:15;9.90;99.90
41985;DHT22;28319;48.116;10.818;2023-04-24T03:41:19;9.90;99.90
41985;DHT22;28319;48.116;10.818;2023-04-24T03:46:22;9.90;99.90
41985;DHT22;28319;48.116;10.818;2023-04-24T03:51:24;9.90;99.90
41985;DHT22;28319;48.116;10.818;2023-04-24T03:56:29;9.80;99.90
41985;DHT22;28319;48.116;10.818;2023-04-24T04:01:31;9.70;99.90
41985;DHT22;28319;48.116;10.818;2023-04-24T04:06:37;9.70;99.90
41985;DHT22;28319;48.116;10.818;2023-04-24T04:11:40;9.70;99.90
41985;DHT22;28319;48.116;10.818;2023-04-24T04:16:42;9.60;99.90
41985;DHT22;28319;48.116;10.818;2023-04-24T04:21:45;9.60;99.90
41985;DHT22;28319;48.116;10.818;2023-04-24T04:26:52;9.60;99.90
41985;DHT22;28319;48.116;10.818;2023-04-24T04:31:57;9.60;99.90
41985;DHT22;28319;48.116;10.818;2023-04-24T04:36:59;9.60;99.90
41985;DHT22;28319;48.116;10.818;2023-04-24T04:42:02;9.90;99.90
41985;DHT22;28319;48.116;10.818;2023-04-24T04:47:04;9.60;99.90
41985;DHT22;28319;48.116;10.818;2023-04-24T04:52:08;9.70;99.90
41985;DHT22;28319;48.116;10.818;2023-04-24T04:57:11;9.60;99.90
41985;DHT22;28319;48.116;10.818;2023-04-24T05:02:13;9.60;99.90
41985;DHT22;28319;48.116;10.818;2023-04-24T05:07:16;9.60;99.90
41985;DHT22;28319;48.116;10.818;2023-04-24T05:12:20;9.60;99.90
41985;DHT22;28319;48.116;10.818;2023-04-24T05:17:22;9.60;99.90
41985;DHT22;28319;48.116;10.818;2023-04-24T05:22:24;9.50;99.90
41985;DHT22;28319;48.116;10.818;2023-04-24T05:27:27;9.60;99.90
41985;DHT22;28319;48.116;10.818;2023-04-24T05:32:29;9.50;99.90
41985;DHT22;28319;48.116;10.818;2023-04-24T05:37:31;9.50;99.90
41985;DHT22;28319;48.116;10.818;2023-04-24T05:42:35;9.50;99.90
41985;DHT22;28319;48.116;10.818;2023-04-24T05:47:37;9.50;99.90
41985;DHT22;28319;48.116;10.818;2023-04-24T05:52:39;9.50;99.90
41985;DHT22;28319;48.116;10.818;2023-04-24T05:57:42;9.50;99.90
41985;DHT22;28319;48.116;10.818;2023-04-24T06:02:44;9.50;99.90
41985;DHT22;28319;48.116;10.818;2023-04-24T06:07:47;9.60;99.90
41985;DHT22;28319;48.116;10.818;2023-04-24T06:12:51;9.50;99.90
41985;DHT22;28319;48.116;10.818;2023-04-24T06:17:53;9.60;99.90
41985;DHT22;28319;48.116;10.818;2023-04-24T06:22:55;9.60;99.90
41985;DHT22;28319;48.116;10.818;2023-04-24T06:27:58;9.60;99.90
41985;DHT22;28319;48.116;10.818;2023-04-24T06:33:00;9.70;99.90
41985;DHT22;28319;48.116;10.818;2023-04-24T06:38:02;9.70;99.90
41985;DHT22;28319;48.116;10.818;2023-04-24T06:43:05;9.80;99.90
41985;DHT22;28319;48.116;10.818;2023-04-24T06:48:07;9.80;99.90
41985;DHT22;28319;48.116;10.818;2023-04-24T06:53:09;9.80;99.90
41985;DHT22;28319;48.116;10.818;2023-04-24T06:58:14;9.90;99.90
41985;DHT22;28319;48.116;10.818;2023-04-24T07:03:16;10.00;99.90
41985;DHT22;28319;48.116;10.818;2023-04-24T07:08:18;10.00;99.90
41985;DHT22;28319;48.116;10.818;2023-04-24T07:13:23;10.00;99.90
41985;DHT22;28319;48.116;10.818;2023-04-24T07:18:25;10.00;99.90
41985;DHT22;28319;48.116;10.818;2023-04-24T07:23:26;10.10;99.90
41985;DHT22;28319;48.116;10.818;2023-04-24T07:28:30;10.00;99.90
41985;DHT22;28319;48.116;10.818;2023-04-24T07:33:32;10.00;99.90
41985;DHT22;28319;48.116;10.818;2023-04-24T07:38:34;10.00;99.90
41985;DHT22;28319;48.116;10.818;2023-04-24T07:43:38;9.20;99.90
41985;DHT22;28319;48.116;10.818;2023-04-24T07:48:40;9.00;99.90
41985;DHT22;28319;48.116;10.818;2023-04-24T07:53:42;8.70;99.90
41985;DHT22;28319;48.116;10.818;2023-04-24T07:58:45;8.90;99.90
41985;DHT22;28319;48.116;10.818;2023-04-24T08:03:47;8.80;99.90
41985;DHT22;28319;48.116;10.818;2023-04-24T08:08:49;8.80;99.90
41985;DHT22;28319;48.116;10.818;2023-04-24T08:13:53;8.80;99.90
41985;DHT22;28319;48.116;10.818;2023-04-24T08:18:56;8.90;99.90
41985;DHT22;28319;48.116;10.818;2023-04-24T08:23:58;9.00;99.90
41985;DHT22;28319;48.116;10.818;2023-04-24T08:29:01;9.20;99.90
41985;DHT22;28319;48.116;10.818;2023-04-24T08:34:03;9.20;99.90
41985;DHT22;28319;48.116;10.818;2023-04-24T08:39:05;9.40;99.90
41985;DHT22;28319;48.116;10.818;2023-04-24T08:44:09;9.40;99.90
41985;DHT22;28319;48.116;10.818;2023-04-24T08:49:12;9.70;99.90
41985;DHT22;28319;48.116;10.818;2023-04-24T08:54:16;10.00;99.90
41985;DHT22;28319;48.116;10.818;2023-04-24T08:59:21;10.10;99.90
41985;DHT22;28319;48.116;10.818;2023-04-24T09:04:24;10.20;99.90
41985;DHT22;28319;48.116;10.818;2023-04-24T09:09:30;10.40;99.90
41985;DHT22;28319;48.116;10.818;2023-04-24T09:14:34;10.60;99.90
41985;DHT22;28319;48.116;10.818;2023-04-24T09:19:37;10.70;99.90
41985;DHT22;28319;48.116;10.818;2023-04-24T09:24:39;10.90;99.90
41985;DHT22;28319;48.116;10.818;2023-04-24T09:29:53;11.10;99.90
41985;DHT22;28319;48.116;10.818;2023-04-24T09:35:12;11.30;99.90
41985;DHT22;28319;48.116;10.818;2023-04-24T09:40:16;11.40;99.90
41985;DHT22;28319;48.116;10.818;2023-04-24T09:45:20;11.30;99.90
41985;DHT22;28319;48.116;10.818;2023-04-24T09:50:23;11.20;99.90
41985;DHT22;28319;48.116;10.818;2023-04-24T09:55:25;10.60;99.90
41985;DHT22;28319;48.116;10.818;2023-04-24T10:00:30;9.60;99.90
41985;DHT22;28319;48.116;10.818;2023-04-24T10:05:34;9.10;99.90
41985;DHT22;28319;48.116;10.818;2023-04-24T10:10:40;9.10;99.90
41985;DHT22;28319;48.116;10.818;2023-04-24T10:15:44;9.00;99.90
41985;DHT22;28319;48.116;10.818;2023-04-24T10:20:46;9.40;99.90
41985;DHT22;28319;48.116;10.818;2023-04-24T10:25:48;9.70;99.90
41985;DHT22;28319;48.116;10.818;2023-04-24T10:30:54;10.10;99.90
41985;DHT22;28319;48.116;10.818;2023-04-24T10:35:57;10.40;99.90
41985;DHT22;28319;48.116;10.818;2023-04-24T10:41:07;10.50;99.90
41985;DHT22;28319;48.116;10.818;2023-04-24T10:46:19;10.70;99.90
41985;DHT22;28319;48.116;10.818;2023-04-24T10:51:22;10.90;99.90
41985;DHT22;28319;48.116;10.818;2023-04-24T10:56:24;10.80;99.90
41985;DHT22;28319;48.116;10.818;2023-04-24T11:01:31;10.60;99.90
41985;DHT22;28319;48.116;10.818;2023-04-24T11:06:35;10.80;99.90
41985;DHT22;28319;48.116;10.818;2023-04-24T11:11:37;11.20;99.90
41985;DHT22;28319;48.116;10.818;2023-04-24T11:16:51;11.60;99.90
41985;DHT22;28319;48.116;10.818;2023-04-24T11:21:58;12.00;99.90
41985;DHT22;28319;48.116;10.818;2023-04-24T11:27:07;12.00;99.90
41985;DHT22;28319;48.116;10.818;2023-04-24T11:32:25;11.70;99.90
41985;DHT22;28319;48.116;10.818;2023-04-24T11:37:29;11.80;99.90
41985;DHT22;28319;48.116;10.818;2023-04-24T11:42:35;12.30;99.90
41985;DHT22;28319;48.116;10.818;2023-04-24T11:47:39;12.30;99.90
41985;DHT22;28319;48.116;10.818;2023-04-24T11:52:43;12.30;99.90
41985;DHT22;28319;48.116;10.818;2023-04-24T11:57:46;12.30;99.90
41985;DHT22;28319;48.116;10.818;2023-04-24T12:02:49;12.00;99.90
41985;DHT22;28319;48.116;10.818;2023-04-24T12:07:52;12.00;99.90
41985;DHT22;28319;48.116;10.818;2023-04-24T12:12:55;11.90;99.90
41985;DHT22;28319;48.116;10.818;2023-04-24T12:17:59;12.50;99.90
41985;DHT22;28319;48.116;10.818;2023-04-24T12:23:01;13.50;99.90
41985;DHT22;28319;48.116;10.818;2023-04-24T12:28:11;13.30;99.90
41985;DHT22;28319;48.116;10.818;2023-04-24T12:33:17;13.10;99.90
41985;DHT22;28319;48.116;10.818;2023-04-24T12:38:23;13.10;99.90
41985;DHT22;28319;48.116;10.818;2023-04-24T12:43:25;12.80;99.90
41985;DHT22;28319;48.116;10.818;2023-04-24T12:48:30;12.80;99.90
41985;DHT22;28319;48.116;10.818;2023-04-24T12:53:32;12.80;99.90
41985;DHT22;28319;48.116;10.818;2023-04-24T12:58:34;13.70;99.90
41985;DHT22;28319;48.116;10.818;2023-04-24T13:03:38;13.30;99.90
41985;DHT22;28319;48.116;10.818;2023-04-24T13:08:40;12.80;98.80
41985;DHT22;28319;48.116;10.818;2023-04-24T13:13:42;12.60;99.90
41985;DHT22;28319;48.116;10.818;2023-04-24T13:18:45;12.80;99.90
41985;DHT22;28319;48.116;10.818;2023-04-24T13:23:47;12.60;99.90
41985;DHT22;28319;48.116;10.818;2023-04-24T13:28:49;12.40;99.90
41985;DHT22;28319;48.116;10.818;2023-04-24T13:33:53;12.30;99.90
41985;DHT22;28319;48.116;10.818;2023-04-24T13:38:55;12.00;99.90
41985;DHT22;28319;48.116;10.818;2023-04-24T13:43:56;12.40;99.90
41985;DHT22;28319;48.116;10.818;2023-04-24T13:49:01;12.80;99.90
41985;DHT22;28319;48.116;10.818;2023-04-24T13:54:04;12.70;99.90
41985;DHT22;28319;48.116;10.818;2023-04-24T13:59:06;12.30;99.90
41985;DHT22;28319;48.116;10.818;2023-04-24T14:04:10;12.50;99.90
41985;DHT22;28319;48.116;10.818;2023-04-24T14:09:12;12.80;99.90
41985;DHT22;28319;48.116;10.818;2023-04-24T14:14:14;13.00;99.80
41985;DHT22;28319;48.116;10.818;2023-04-24T14:19:18;13.10;99.80
41985;DHT22;28319;48.116;10.818;2023-04-24T14:24:20;12.50;99.20
41985;DHT22;28319;48.116;10.818;2023-04-24T14:29:21;12.90;99.90
41985;DHT22;28319;48.116;10.818;2023-04-24T14:34:26;13.00;98.40
41985;DHT22;28319;48.116;10.818;2023-04-24T14:39:28;12.90;98.30
41985;DHT22;28319;48.116;10.818;2023-04-24T14:44:30;13.10;98.40
41985;DHT22;28319;48.116;10.818;2023-04-24T14:49:34;13.30;98.00
41985;DHT22;28319;48.116;10.818;2023-04-24T14:54:36;13.30;98.40
41985;DHT22;28319;48.116;10.818;2023-04-24T14:59:38;13.10;97.90
41985;DHT22;28319;48.116;10.818;2023-04-24T15:04:42;13.10;96.40
41985;DHT22;28319;48.116;10.818;2023-04-24T15:09:44;12.90;97.00
41985;DHT22;28319;48.116;10.818;2023-04-24T15:14:47;12.70;97.00
41985;DHT22;28319;48.116;10.818;2023-04-24T15:19:51;12.60;97.90
41985;DHT22;28319;48.116;10.818;2023-04-24T15:24:53;12.70;97.00
41985;DHT22;28319;48.116;10.818;2023-04-24T15:29:55;12.60;96.00
41985;DHT22;28319;48.116;10.818;2023-04-24T15:35:00;12.40;96.30
41985;DHT22;28319;48.116;10.818;2023-04-24T15:40:02;12.20;95.90
41985;DHT22;28319;48.116;10.818;2023-04-24T15:45:08;12.20;96.10
41985;DHT22;28319;48.116;10.818;2023-04-24T15:50:11;12.20;97.70
41985;DHT22;28319;48.116;10.818;2023-04-24T15:55:15;12.10;97.10
41985;DHT22;28319;48.116;10.818;2023-04-24T16:00:18;12.20;98.90
41985;DHT22;28319;48.116;10.818;2023-04-24T16:05:22;12.10;97.60
41985;DHT22;28319;48.116;10.818;2023-04-24T16:10:24;12.10;98.20
41985;DHT22;28319;48.116;10.818;2023-04-24T16:15:26;11.90;97.20
41985;DHT22;28319;48.116;10.818;2023-04-24T16:20:29;11.80;97.40
41985;DHT22;28319;48.116;10.818;2023-04-24T16:25:31;12.00;97.50
41985;DHT22;28319;48.116;10.818;2023-04-24T16:30:33;12.00;97.40
41985;DHT22;28319;48.116;10.818;2023-04-24T16:35:37;11.90;97.50
41985;DHT22;28319;48.116;10.818;2023-04-24T16:40:40;11.80;97.70
41985;DHT22;28319;48.116;10.818;2023-04-24T16:45:42;11.70;97.60
41985;DHT22;28319;48.116;10.818;2023-04-24T16:50:45;11.60;97.30
41985;DHT22;28319;48.116;10.818;2023-04-24T16:55:47;11.60;97.30
41985;DHT22;28319;48.116;10.818;2023-04-24T17:00:49;11.50;97.40
41985;DHT22;28319;48.116;10.818;2023-04-24T17:05:53;11.50;97.80
41985;DHT22;28319;48.116;10.818;2023-04-24T17:10:55;11.60;98.30
41985;DHT22;28319;48.116;10.818;2023-04-24T17:15:57;11.50;98.00
41985;DHT22;28319;48.116;10.818;2023-04-24T17:21:00;11.40;99.80
41985;DHT22;28319;48.116;10.818;2023-04-24T17:26:02;11.30;97.50
41985;DHT22;28319;48.116;10.818;2023-04-24T17:31:05;11.10;97.90
41985;DHT22;28319;48.116;10.818;2023-04-24T17:36:08;11.10;98.50
41985;DHT22;28319;48.116;10.818;2023-04-24T17:41:10;11.20;98.90
41985;DHT22;28319;48.116;10.818;2023-04-24T17:46:16;11.10;98.60
41985;DHT22;28319;48.116;10.818;2023-04-24T17:51:19;11.00;99.20
41985;DHT22;28319;48.116;10.818;2023-04-24T17:56:22;11.00;99.40
41985;DHT22;28319;48.116;10.818;2023-04-24T18:01:24;11.00;99.90
41985;DHT22;28319;48.116;10.818;2023-04-24T18:06:30;11.10;99.90
41985;DHT22;28319;48.116;10.818;2023-04-24T18:11:32;11.10;99.90
41985;DHT22;28319;48.116;10.818;2023-04-24T18:16:34;11.00;99.90
41985;DHT22;28319;48.116;10.818;2023-04-24T18:21:37;11.00;99.90
41985;DHT22;28319;48.116;10.818;2023-04-24T18:26:39;11.00;99.90
41985;DHT22;28319;48.116;10.818;2023-04-24T18:31:41;10.80;99.90
41985;DHT22;28319;48.116;10.818;2023-04-24T18:36:45;10.70;99.90
41985;DHT22;28319;48.116;10.818;2023-04-24T18:41:47;10.70;99.90
41985;DHT22;28319;48.116;10.818;2023-04-24T18:46:49;10.80;99.90
41985;DHT22;28319;48.116;10.818;2023-04-24T18:51:53;10.70;99.90
41985;DHT22;28319;48.116;10.818;2023-04-24T18:56:55;10.60;99.90
41985;DHT22;28319;48.116;10.818;2023-04-24T19:01:57;10.50;99.90
41985;DHT22;28319;48.116;10.818;2023-04-24T19:07:00;10.50;99.90
41985;DHT22;28319;48.116;10.818;2023-04-24T19:12:03;10.30;99.90
41985;DHT22;28319;48.116;10.818;2023-04-24T19:17:06;10.20;99.90
41985;DHT22;28319;48.116;10.818;2023-04-24T19:22:11;9.90;99.90
41985;DHT22;28319;48.116;10.818;2023-04-24T19:27:12;9.90;99.90
41985;DHT22;28319;48.116;10.818;2023-04-24T19:32:14;9.80;99.90
41985;DHT22;28319;48.116;10.818;2023-04-24T19:37:18;9.70;99.90
41985;DHT22;28319;48.116;10.818;2023-04-24T19:42:20;9.70;99.90
41985;DHT22;28319;48.116;10.818;2023-04-24T19:47:22;9.60;99.90
41985;DHT22;28319;48.116;10.818;2023-04-24T19:52:25;9.50;99.90
41985;DHT22;28319;48.116;10.818;2023-04-24T19:57:28;9.40;99.90
41985;DHT22;28319;48.116;10.818;2023-04-24T20:02:30;9.60;99.90
41985;DHT22;28319;48.116;10.818;2023-04-24T20:07:33;9.50;99.90
41985;DHT22;28319;48.116;10.818;2023-04-24T20:12:36;9.30;99.90
41985;DHT22;28319;48.116;10.818;2023-04-24T20:17:38;9.20;99.90
41985;DHT22;28319;48.116;10.818;2023-04-24T20:22:41;9.10;99.90
41985;DHT22;28319;48.116;10.818;2023-04-24T20:27:43;9.00;99.90
41985;DHT22;28319;48.116;10.818;2023-04-24T20:32:46;8.90;99.90
41985;DHT22;28319;48.116;10.818;2023-04-24T20:37:50;8.80;99.90
41985;DHT22;28319;48.116;10.818;2023-04-24T20:42:53;8.70;99.90
41985;DHT22;28319;48.116;10.818;2023-04-24T20:47:55;8.50;99.90
41985;DHT22;28319;48.116;10.818;2023-04-24T20:52:58;8.40;99.90
41985;DHT22;28319;48.116;10.818;2023-04-24T20:58:00;8.50;99.90
41985;DHT22;28319;48.116;10.818;2023-04-24T21:03:02;8.50;99.90
41985;DHT22;28319;48.116;10.818;2023-04-24T21:08:06;8.40;99.90
41985;DHT22;28319;48.116;10.818;2023-04-24T21:13:08;8.40;99.90
41985;DHT22;28319;48.116;10.818;2023-04-24T21:18:10;8.30;99.90
41985;DHT22;28319;48.116;10.818;2023-04-24T21:23:14;8.40;99.90
41985;DHT22;28319;48.116;10.818;2023-04-24T21:28:16;8.40;99.90
41985;DHT22;28319;48.116;10.818;2023-04-24T21:33:18;8.30;99.90
41985;DHT22;28319;48.116;10.818;2023-04-24T21:38:21;8.30;99.90
41985;DHT22;28319;48.116;10.818;2023-04-24T21:43:24;8.20;99.90
41985;DHT22;28319;48.116;10.818;2023-04-24T21:48:26;8.30;99.90
41985;DHT22;28319;48.116;10.818;2023-04-24T21:53:30;8.30;99.90
41985;DHT22;28319;48.116;10.818;2023-04-24T21:58:32;8.10;99.90
41985;DHT22;28319;48.116;10.818;2023-04-24T22:03:34;8.20;99.90
41985;DHT22;28319;48.116;10.818;2023-04-24T22:08:38;8.20;99.90
41985;DHT22;28319;48.116;10.818;2023-04-24T22:13:41;8.10;99.90
41985;DHT22;28319;48.116;10.818;2023-04-24T22:18:43;8.10;99.90
41985;DHT22;28319;48.116;10.818;2023-04-24T22:23:46;8.00;99.90
41985;DHT22;28319;48.116;10.818;2023-04-24T22:28:48;8.00;99.90
41985;DHT22;28319;48.116;10.818;2023-04-24T22:33:50;8.00;99.90
41985;DHT22;28319;48.116;10.818;2023-04-24T22:38:54;8.10;99.90
41985;DHT22;28319;48.116;10.818;2023-04-24T22:43:56;8.10;99.90
41985;DHT22;28319;48.116;10.818;2023-04-24T22:48:58;8.10;99.90
41985;DHT22;28319;48.116;10.818;2023-04-24T22:54:03;8.00;99.90
41985;DHT22;28319;48.116;10.818;2023-04-24T22:59:05;7.90;99.90
41985;DHT22;28319;48.116;10.818;2023-04-24T23:04:07;7.90;99.90
41985;DHT22;28319;48.116;10.818;2023-04-24T23:09:10;7.80;99.90
41985;DHT22;28319;48.116;10.818;2023-04-24T23:14:12;7.70;99.90
41985;DHT22;28319;48.116;10.818;2023-04-24T23:19:16;7.70;99.90
41985;DHT22;28319;48.116;10.818;2023-04-24T23:24:19;7.70;99.90
41985;DHT22;28319;48.116;10.818;2023-04-24T23:29:21;7.70;99.90
41985;DHT22;28319;48.116;10.818;2023-04-24T23:34:25;7.70;99.90
41985;DHT22;28319;48.116;10.818;2023-04-24T23:39:29;7.60;99.90
41985;DHT22;28319;48.116;10.818;2023-04-24T23:44:31;7.50;99.90
41985;DHT22;28319;48.116;10.818;2023-04-24T23:49:33;7.40;99.90
41985;DHT22;28319;48.116;10.818;2023-04-24T23:54:37;7.40;99.90
41985;DHT22;28319;48.116;10.818;2023-04-24T23:59:39;7.40;99.90
